createdAt,value
2019-04-14T00:00:53.281Z,53.90
2019-04-14T00:03:21.632Z,57.00
2019-04-14T00:05:49.752Z,56.93
2019-04-14T00:08:15.690Z,50.63
2019-04-14T00:10:42.179Z,54.37
2019-04-14T00:13:08.986Z,58.33
2019-04-14T00:15:39.541Z,50.63
2019-04-14T00:18:03.237Z,55.57
2019-04-14T00:20:29.376Z,59.97
2019-04-14T00:22:55.579Z,59.93
2019-04-14T00:25:21.667Z,58.30
2019-04-14T00:27:47.688Z,56.80
2019-04-14T00:30:15.053Z,59.77
2019-04-14T00:32:44.355Z,57.23
2019-04-14T00:35:16.741Z,58.30
2019-04-14T00:37:53.454Z,59.60
2019-04-14T00:40:26.999Z,54.07
2019-04-14T00:43:00.593Z,63.50
2019-04-14T00:45:40.482Z,61.23
2019-04-14T00:48:07.952Z,57.60
2019-04-14T00:50:29.809Z,60.10
2019-04-14T00:52:56.652Z,68.30
2019-04-14T00:55:22.645Z,64.43
2019-04-14T00:57:48.726Z,60.43
2019-04-14T01:00:17.635Z,63.57
2019-04-14T01:02:42.988Z,60.40
2019-04-14T01:05:09.305Z,67.77
2019-04-14T01:07:35.130Z,62.43
2019-04-14T01:10:01.819Z,67.40
2019-04-14T01:12:27.867Z,77.73
2019-04-14T01:14:53.970Z,71.17
2019-04-14T01:17:19.979Z,74.10
2019-04-14T01:19:46.281Z,75.43
2019-04-14T01:22:12.262Z,68.40
2019-04-14T01:24:38.219Z,71.07
2019-04-14T01:27:04.194Z,67.83
2019-04-14T01:29:30.212Z,65.77
2019-04-14T01:31:56.216Z,66.30
2019-04-14T01:34:22.085Z,64.97
2019-04-14T01:36:48.048Z,64.00
2019-04-14T01:39:13.970Z,67.13
2019-04-14T01:41:41.013Z,68.13
2019-04-14T01:44:06.941Z,86.30
2019-04-14T01:46:34.363Z,101.50
2019-04-14T01:49:00.745Z,118.47
2019-04-14T01:51:41.668Z,114.47
2019-04-14T01:54:19.290Z,122.77
2019-04-14T01:56:56.251Z,114.93
2019-04-14T01:59:22.170Z,124.40
2019-04-14T02:01:52.658Z,117.40
2019-04-14T02:04:18.601Z,130.30
2019-04-14T02:06:46.001Z,138.53
2019-04-14T02:09:12.639Z,124.40
2019-04-14T02:11:39.832Z,124.83
2019-04-14T02:14:06.101Z,132.97
2019-04-14T02:16:39.466Z,140.83
2019-04-14T02:19:00.369Z,156.90
2019-04-14T02:21:27.931Z,163.17
2019-04-14T02:23:54.053Z,166.57
2019-04-14T02:26:19.860Z,172.20
2019-04-14T02:28:46.225Z,164.73
2019-04-14T02:31:33.353Z,146.93
2019-04-14T02:34:13.008Z,133.97
2019-04-14T02:39:07.682Z,108.03
2019-04-14T02:46:36.233Z,116.53
2019-04-14T02:49:08.266Z,117.17
2019-04-14T02:51:25.697Z,109.93
2019-04-14T02:58:55.198Z,90.10
2019-04-14T03:01:27.632Z,90.10
2019-04-14T03:03:41.539Z,86.67
2019-04-14T03:06:05.388Z,86.90
2019-04-14T03:08:45.653Z,79.83
2019-04-14T03:11:01.653Z,82.70
2019-04-14T03:13:35.388Z,79.00
2019-04-14T03:15:55.854Z,69.50
2019-04-14T03:21:29.228Z,72.30
2019-04-14T03:24:07.064Z,82.93
2019-04-14T03:26:40.322Z,74.80
2019-04-14T03:29:12.827Z,80.90
2019-04-14T03:31:59.743Z,82.80
2019-04-14T03:37:18.520Z,76.43
2019-04-14T03:38:58.545Z,69.00
2019-04-14T03:43:46.432Z,71.73
2019-04-14T03:46:25.346Z,63.70
2019-04-14T03:51:24.483Z,69.47
2019-04-14T03:53:39.839Z,61.50
